createdAt,value
2022-09-28T00:01:05.252Z,8.90
2022-09-28T00:04:46.270Z,9.00
2022-09-28T00:08:34.122Z,7.90
2022-09-28T00:12:22.322Z,10.30
2022-09-28T00:15:49.452Z,8.00
2022-09-28T00:19:39.849Z,8.90
2022-09-28T00:23:12.686Z,11.50
2022-09-28T00:27:02.108Z,7.60
2022-09-28T00:30:49.924Z,6.60
2022-09-28T00:34:37.580Z,8.00
2022-09-28T00:41:52.512Z,8.10
2022-09-28T00:45:40.372Z,8.10
2022-09-28T00:49:19.072Z,9.20
2022-09-28T00:53:06.855Z,8.80
2022-09-28T00:56:39.224Z,9.90
2022-09-28T01:00:27.238Z,10.00
2022-09-28T01:04:14.362Z,9.50
2022-09-28T01:08:03.563Z,8.70
2022-09-28T01:11:50.417Z,8.80
2022-09-28T01:15:38.109Z,10.40
2022-09-28T01:19:31.677Z,8.80
2022-09-28T01:23:35.264Z,7.80
2022-09-28T01:30:56.005Z,10.60
2022-09-28T01:37:44.484Z,10.10
2022-09-28T01:41:18.199Z,10.70
2022-09-28T01:44:53.039Z,11.80
2022-09-28T01:55:13.493Z,9.30
2022-09-28T01:59:03.081Z,9.70
2022-09-28T02:02:55.914Z,11.00
2022-09-28T02:06:23.489Z,9.60
2022-09-28T02:10:13.251Z,8.90
2022-09-28T02:14:15.725Z,8.50
2022-09-28T02:18:03.892Z,10.80
2022-09-28T02:22:03.476Z,11.80
2022-09-28T02:25:54.365Z,10.10
2022-09-28T02:28:49.223Z,9.10
2022-09-28T02:31:16.344Z,9.70
2022-09-28T02:33:50.310Z,9.60
2022-09-28T02:36:29.435Z,10.20
2022-09-28T02:39:02.064Z,8.80
2022-09-28T02:42:33.421Z,9.20
2022-09-28T02:46:30.757Z,8.50
2022-09-28T02:50:22.969Z,8.80
2022-09-28T02:54:13.412Z,8.40
2022-09-28T02:57:59.969Z,10.80
2022-09-28T03:01:22.594Z,8.10
2022-09-28T03:04:15.056Z,10.20
2022-09-28T03:07:07.301Z,7.90
2022-09-28T03:09:43.856Z,8.70
2022-09-28T03:12:16.199Z,9.40
2022-09-28T03:14:44.547Z,10.90
2022-09-28T03:17:11.516Z,9.30
2022-09-28T03:19:38.867Z,10.80
2022-09-28T03:22:11.457Z,10.20
2022-09-28T03:24:38.868Z,11.10
2022-09-28T03:27:07.697Z,12.80
2022-09-28T03:29:35.336Z,12.60
2022-09-28T03:32:05.845Z,12.10
2022-09-28T03:34:32.885Z,12.70
2022-09-28T03:36:59.997Z,13.10
2022-09-28T03:39:26.983Z,12.60
2022-09-28T03:41:54.027Z,12.30
2022-09-28T03:44:21.295Z,12.30
2022-09-28T03:46:50.664Z,14.60
2022-09-28T03:49:17.717Z,15.30
2022-09-28T03:51:47.226Z,16.10
2022-09-28T03:54:17.076Z,13.00
2022-09-28T03:56:44.299Z,17.50
2022-09-28T03:59:15.128Z,17.50
2022-09-28T04:01:44.868Z,16.50
2022-09-28T04:04:15.371Z,16.90
2022-09-28T04:06:42.352Z,18.00
2022-09-28T04:09:10.284Z,15.20
2022-09-28T04:12:02.325Z,16.20
2022-09-28T04:14:30.229Z,15.60
2022-09-28T04:16:57.162Z,14.10
2022-09-28T04:19:26.415Z,14.00
2022-09-28T04:22:12.119Z,17.40
2022-09-28T04:24:43.152Z,14.80
2022-09-28T04:27:28.327Z,17.00
2022-09-28T04:29:55.638Z,14.20
2022-09-28T04:32:23.203Z,15.70
2022-09-28T04:35:14.248Z,17.10
2022-09-28T04:51:04.309Z,16.70
2022-09-28T04:53:51.412Z,19.20
2022-09-28T04:56:50.318Z,19.10
2022-09-28T04:59:23.661Z,18.90
2022-09-28T05:02:11.470Z,16.60
2022-09-28T05:05:19.701Z,15.60
2022-09-28T05:08:06.136Z,16.00
2022-09-28T05:10:36.034Z,16.60
2022-09-28T05:13:13.253Z,18.10
2022-09-28T05:15:42.389Z,19.30
2022-09-28T05:18:22.084Z,20.60
2022-09-28T05:21:13.256Z,17.10
2022-09-28T05:23:45.699Z,14.90
2022-09-28T05:26:13.321Z,12.70
2022-09-28T05:29:07.538Z,13.60
2022-09-28T05:35:23.509Z,13.60
2022-09-28T05:45:54.262Z,15.30
2022-09-28T05:48:59.853Z,17.20
2022-09-28T05:55:28.767Z,14.50
2022-09-28T05:57:59.813Z,14.30
2022-09-28T06:09:55.278Z,10.20
2022-09-28T06:55:21.476Z,5.40
2022-09-28T06:58:54.173Z,6.40
2022-09-28T07:01:22.002Z,6.00
2022-09-28T07:04:21.141Z,6.10
2022-09-28T07:50:38.232Z,3.60
2022-09-28T07:54:14.521Z,5.10
2022-09-28T07:57:07.905Z,3.80
2022-09-28T08:00:28.916Z,3.30
2022-09-28T08:03:02.131Z,4.50
2022-09-28T08:05:51.811Z,3.70
2022-09-28T08:08:30.703Z,4.70
2022-09-28T08:11:23.438Z,5.30
2022-09-28T08:14:37.424Z,4.60
2022-09-28T08:18:23.701Z,3.20
2022-09-28T08:21:12.164Z,4.00
2022-09-28T08:24:02.561Z,3.70
2022-09-28T08:26:32.864Z,3.10
2022-09-28T08:29:33.432Z,4.30
2022-09-28T08:32:26.119Z,3.40
2022-09-28T08:36:20.021Z,4.70
2022-09-28T08:39:17.893Z,4.60
2022-09-28T08:42:45.061Z,3.70
2022-09-28T08:47:15.875Z,4.30
2022-09-28T08:50:37.859Z,3.20
2022-09-28T08:53:35.353Z,5.70
2022-09-28T08:57:09.893Z,4.30
2022-09-28T08:59:56.794Z,3.30
2022-09-28T09:06:45.600Z,3.90
2022-09-28T09:10:19.711Z,3.80
2022-09-28T09:13:41.298Z,3.70
2022-09-28T09:16:40.437Z,4.90
2022-09-28T09:19:46.707Z,3.00
2022-09-28T09:23:24.967Z,4.00
2022-09-28T09:30:17.493Z,2.00
2022-09-28T09:33:24.922Z,3.70
2022-09-28T10:30:44.448Z,2.00
2022-09-28T10:33:33.869Z,2.00
2022-09-28T10:36:07.196Z,2.90
2022-09-28T10:38:35.649Z,1.50
2022-09-28T10:41:16.723Z,2.90
2022-09-28T10:44:08.372Z,3.20
2022-09-28T10:46:42.954Z,2.50
2022-09-28T10:49:18.770Z,2.90
2022-09-28T10:51:58.557Z,2.00
2022-09-28T10:54:53.763Z,1.80
2022-09-28T10:57:37.068Z,2.90
2022-09-28T11:00:32.876Z,3.60
2022-09-28T11:03:26.118Z,2.90
2022-09-28T11:06:03.055Z,1.80
2022-09-28T11:08:52.180Z,2.40
2022-09-28T11:11:20.676Z,1.90
2022-09-28T11:14:04.016Z,3.00
2022-09-28T11:16:36.732Z,1.60
2022-09-28T11:19:20.991Z,3.00
2022-09-28T11:21:49.566Z,1.70
2022-09-28T11:24:20.568Z,3.50
2022-09-28T11:26:56.737Z,3.10
2022-09-28T11:29:45.861Z,1.60
2022-09-28T11:32:30.934Z,1.30
2022-09-28T11:35:32.322Z,2.50
2022-09-28T11:38:28.784Z,2.70
2022-09-28T11:41:58.884Z,2.10
2022-09-28T11:44:38.645Z,3.50
2022-09-28T11:47:55.430Z,1.80
2022-09-28T11:50:50.774Z,2.90
2022-09-28T11:53:41.928Z,1.20
2022-09-28T11:56:20.005Z,3.20
2022-09-28T11:58:54.052Z,2.00
2022-09-28T12:01:44.290Z,1.20
2022-09-28T12:04:53.030Z,2.70
2022-09-28T12:08:04.008Z,2.80
2022-09-28T12:11:15.853Z,2.40
2022-09-28T12:14:07.165Z,2.40
2022-09-28T12:17:07.738Z,2.70
2022-09-28T12:19:49.097Z,2.00
2022-09-28T12:22:33.276Z,1.50
2022-09-28T12:25:04.247Z,3.00
2022-09-28T12:28:07.292Z,2.90
2022-09-28T12:30:40.997Z,3.20
2022-09-28T12:33:16.101Z,1.80
2022-09-28T12:36:02.677Z,2.30
2022-09-28T12:39:15.096Z,2.20
2022-09-28T12:42:18.372Z,4.40
2022-09-28T12:45:00.397Z,5.80
2022-09-28T12:47:40.946Z,2.70
2022-09-28T12:50:56.074Z,1.40
2022-09-28T12:53:44.143Z,1.90
2022-09-28T12:59:53.188Z,1.70
2022-09-28T13:02:59.959Z,2.30
2022-09-28T13:05:58.096Z,2.00
2022-09-28T13:08:39.243Z,2.20
2022-09-28T13:11:35.386Z,5.00
2022-09-28T13:14:29.451Z,2.00
2022-09-28T13:17:00.908Z,2.30
2022-09-28T13:19:55.130Z,2.40
2022-09-28T13:22:44.135Z,3.00
2022-09-28T13:25:19.221Z,2.90
2022-09-28T13:28:03.468Z,2.00
2022-09-28T13:30:35.840Z,1.40
2022-09-28T13:33:08.857Z,1.80
2022-09-28T13:35:43.595Z,3.50
2022-09-28T13:38:16.446Z,2.00
2022-09-28T13:41:06.342Z,4.20
2022-09-28T13:44:13.898Z,1.50
2022-09-28T13:49:45.728Z,3.00
2022-09-28T13:52:48.204Z,5.00
2022-09-28T13:55:33.122Z,1.60
2022-09-28T13:58:05.967Z,1.60
2022-09-28T14:00:57.896Z,1.80
2022-09-28T14:03:37.139Z,2.70
2022-09-28T14:06:25.694Z,3.10
2022-09-28T14:09:29.173Z,2.50
2022-09-28T14:12:24.173Z,6.00
2022-09-28T14:14:52.950Z,2.70
2022-09-28T14:17:20.952Z,2.60
2022-09-28T14:23:00.945Z,2.40
2022-09-28T14:26:04.180Z,3.80
2022-09-28T14:41:17.652Z,3.90
2022-09-28T14:43:51.013Z,4.80
2022-09-28T14:50:38.073Z,3.70
2022-09-28T14:53:12.437Z,1.30
2022-09-28T15:04:28.218Z,2.60
2022-09-28T15:12:06.172Z,2.30
2022-09-28T15:18:54.790Z,3.80
2022-09-28T15:22:03.509Z,2.80
2022-09-28T15:28:19.441Z,2.90
2022-09-28T15:30:48.436Z,2.20
2022-09-28T15:33:50.323Z,3.30
2022-09-28T15:36:29.387Z,3.20
2022-09-28T15:39:23.611Z,4.80
2022-09-28T15:41:52.904Z,2.10
2022-09-28T16:04:05.337Z,3.90
2022-09-28T16:06:38.769Z,3.30
2022-09-28T16:09:34.578Z,5.30
2022-09-28T16:15:39.625Z,5.20
2022-09-28T16:18:24.300Z,6.20
2022-09-28T17:06:16.972Z,6.90
2022-09-28T17:13:33.880Z,8.00
2022-09-28T17:17:02.686Z,10.10
2022-09-28T17:21:04.522Z,11.60
2022-09-28T17:42:33.658Z,17.30
2022-09-28T17:45:05.817Z,10.40
2022-09-28T17:54:34.719Z,23.00
2022-09-28T17:57:42.312Z,21.90
2022-09-28T18:13:17.360Z,16.60
2022-09-28T18:19:45.440Z,17.20
2022-09-28T18:37:17.014Z,12.50
2022-09-28T18:40:58.884Z,12.00
2022-09-28T18:49:26.586Z,11.80
2022-09-28T18:52:19.109Z,11.50
2022-09-28T18:54:51.756Z,16.30
2022-09-28T18:57:55.898Z,11.90
2022-09-28T19:01:28.294Z,12.30
2022-09-28T19:04:27.924Z,13.10
2022-09-28T19:07:22.065Z,14.10
2022-09-28T19:09:50.961Z,15.50
2022-09-28T19:12:57.565Z,14.80
2022-09-28T19:28:01.576Z,13.00
2022-09-28T19:30:29.960Z,12.80
2022-09-28T19:32:58.262Z,13.30
2022-09-28T19:37:55.948Z,16.70
2022-09-28T19:40:26.735Z,14.90
2022-09-28T19:42:55.295Z,14.80
2022-09-28T19:45:23.791Z,14.60
2022-09-28T19:47:57.297Z,13.80
2022-09-28T19:50:28.269Z,17.20
2022-09-28T19:53:01.865Z,14.60
2022-09-28T19:55:35.767Z,13.90
2022-09-28T19:58:04.242Z,15.20
2022-09-28T20:03:04.084Z,14.80
2022-09-28T20:05:32.545Z,15.40
2022-09-28T20:12:46.619Z,14.90
2022-09-28T20:15:56.938Z,16.10
2022-09-28T20:18:45.611Z,16.70
2022-09-28T20:23:48.303Z,16.70
2022-09-28T20:26:18.094Z,18.90
2022-09-28T20:28:46.996Z,18.80
2022-09-28T20:31:22.979Z,16.20
2022-09-28T20:33:53.524Z,14.90
2022-09-28T20:36:25.574Z,16.70
2022-09-28T20:38:55.041Z,19.30
2022-09-28T20:41:33.091Z,15.70
2022-09-28T20:44:30.705Z,15.30
2022-09-28T20:47:59.848Z,16.80
2022-09-28T20:50:35.250Z,15.70
2022-09-28T20:53:29.509Z,17.10
2022-09-28T20:56:00.310Z,14.20
2022-09-28T20:58:50.247Z,12.80
2022-09-28T21:01:45.331Z,13.40
2022-09-28T21:04:13.788Z,15.00
2022-09-28T21:06:44.486Z,12.70
2022-09-28T21:09:13.187Z,12.50
2022-09-28T21:14:15.606Z,14.90
2022-09-28T21:17:05.471Z,13.40
2022-09-28T21:19:38.936Z,16.10
2022-09-28T21:22:08.843Z,17.00
2022-09-28T21:25:33.089Z,16.80
2022-09-28T21:29:30.525Z,20.60
2022-09-28T21:33:44.870Z,17.60
2022-09-28T21:36:54.635Z,16.70
2022-09-28T21:40:22.296Z,13.40
2022-09-28T21:43:11.301Z,18.90
2022-09-28T21:45:55.288Z,15.70
2022-09-28T21:48:37.733Z,20.80
2022-09-28T21:51:20.217Z,13.70
2022-09-28T21:54:03.946Z,20.20
2022-09-28T21:56:47.903Z,17.50
2022-09-28T21:59:31.347Z,12.40
2022-09-28T22:02:06.819Z,16.00
2022-09-28T22:04:34.980Z,14.10
2022-09-28T22:07:06.033Z,11.10
2022-09-28T22:09:36.040Z,13.60
2022-09-28T22:12:24.420Z,12.20
2022-09-28T22:17:40.660Z,14.20
2022-09-28T22:20:09.438Z,14.20
2022-09-28T22:25:06.891Z,10.20
2022-09-28T22:27:35.022Z,13.70
2022-09-28T22:30:06.640Z,13.70
2022-09-28T22:32:35.275Z,13.70
2022-09-28T22:35:05.003Z,12.40
2022-09-28T22:37:33.697Z,14.20
2022-09-28T22:40:02.102Z,12.80
2022-09-28T22:42:30.179Z,14.70
2022-09-28T22:44:58.253Z,12.90
2022-09-28T22:47:26.446Z,14.50
2022-09-28T22:49:54.672Z,13.40
2022-09-28T22:52:22.953Z,16.30
2022-09-28T22:54:54.440Z,14.30
2022-09-28T22:57:24.689Z,16.90
2022-09-28T22:59:52.760Z,15.50
2022-09-28T23:02:23.883Z,16.80
2022-09-28T23:04:52.051Z,15.10
2022-09-28T23:07:20.152Z,15.90
2022-09-28T23:09:48.290Z,14.90
2022-09-28T23:12:16.431Z,13.50
2022-09-28T23:14:44.669Z,12.80
2022-09-28T23:17:12.831Z,13.10
2022-09-28T23:19:41.148Z,13.80
2022-09-28T23:22:10.645Z,12.60
2022-09-28T23:24:38.762Z,16.80
2022-09-28T23:27:08.018Z,13.00
2022-09-28T23:29:36.502Z,13.70
2022-09-28T23:32:04.593Z,13.00
2022-09-28T23:34:32.729Z,13.00
2022-09-28T23:37:00.749Z,10.50
2022-09-28T23:39:28.774Z,11.30
2022-09-28T23:41:59.133Z,16.30
2022-09-28T23:44:31.786Z,13.60
2022-09-28T23:47:00.327Z,11.70
2022-09-28T23:49:29.791Z,12.60
2022-09-28T23:51:57.794Z,12.50
2022-09-28T23:54:25.888Z,9.00
2022-09-28T23:56:53.923Z,10.10
2022-09-28T23:59:21.828Z,11.10
